Time;durP1;ratioP1;P1;durP2;ratioP2;P2;SDS_P1;SDS_P2;PMS_P1;PMS_P2;Temp;Humidity;BMP_temperature;BMP_pressure;BME280_temperature;BME280_humidity;BME280_pressure;Samples;Min_cycle;Max_cycle;Signal;HPM_P1;HPM_P2
2021/10/18 00:00:33;;;;;;;12.65;7.90;;;;;;;5.22;65.21;100913.38;1794578;78;21537;-71
2021/10/18 00:02:59;;;;;;;14.93;7.87;;;;;;;5.20;65.28;100909.64;1802660;78;21008;-71
2021/10/18 00:05:32;;;;;;;13.72;7.15;;;;;;;5.20;65.34;100908.31;1792322;78;21550;-71
2021/10/18 00:08:01;;;;;;;15.90;8.05;;;;;;;5.21;65.36;100906.47;1785815;78;21008;-70
2021/10/18 00:10:28;;;;;;;11.25;7.35;;;;;;;5.20;65.45;100904.34;1784487;78;21533;-71
2021/10/18 00:12:58;;;;;;;13.78;7.10;;;;;;;5.20;65.52;100901.70;1787673;78;21027;-71
2021/10/18 00:15:26;;;;;;;15.43;7.83;;;;;;;5.20;65.51;100895.08;1787530;78;21058;-70
2021/10/18 00:17:56;;;;;;;13.95;7.92;;;;;;;5.21;65.57;100895.36;1788439;78;21616;-70
2021/10/18 00:20:25;;;;;;;13.08;7.62;;;;;;;5.24;65.65;100896.27;1785611;78;21047;-70
2021/10/18 00:22:51;;;;;;;12.90;7.62;;;;;;;5.24;65.64;100884.87;1788331;78;21488;-70
2021/10/18 00:25:20;;;;;;;13.80;7.92;;;;;;;5.22;65.78;100889.55;1790862;78;21657;-71
2021/10/18 00:27:48;;;;;;;12.20;8.15;;;;;;;5.22;65.88;100885.58;1786169;78;21107;-70
2021/10/18 00:30:17;;;;;;;11.80;7.45;;;;;;;5.24;66.21;100884.87;1788214;78;21054;-70
2021/10/18 00:32:45;;;;;;;20.77;10.03;;;;;;;5.23;66.12;100893.81;1790421;78;21530;-71
2021/10/18 00:35:13;;;;;;;20.12;12.75;;;;;;;5.24;66.27;100893.62;1790868;78;21441;-70
2021/10/18 00:37:40;;;;;;;23.15;13.62;;;;;;;5.18;66.74;100892.62;1793972;78;21306;-70
2021/10/18 00:40:10;;;;;;;23.85;13.93;;;;;;;5.13;67.00;100888.98;1789125;79;22316;-70
2021/10/18 00:42:49;;;;;;;22.62;14.03;;;;;;;5.07;67.25;100889.34;1786937;79;21644;-71
2021/10/18 00:45:16;;;;;;;29.90;17.10;;;;;;;5.03;67.33;100893.93;1751000;79;21087;-70
2021/10/18 00:47:43;;;;;;;29.35;18.25;;;;;;;4.92;67.91;100894.90;1739873;80;21152;-70
2021/10/18 00:50:10;;;;;;;28.50;16.93;;;;;;;4.82;68.33;100889.77;1738089;81;21119;-70
2021/10/18 00:52:48;;;;;;;24.63;14.35;;;;;;;4.77;68.65;100891.73;1736075;80;21083;-71
2021/10/18 00:55:15;;;;;;;19.12;11.30;;;;;;;4.75;68.96;100888.98;1734819;80;21107;-71
2021/10/18 00:57:43;;;;;;;23.30;13.70;;;;;;;4.72;69.19;100887.56;1748092;79;21103;-70
2021/10/18 01:00:12;;;;;;;24.35;14.78;;;;;;;4.71;69.40;100887.27;1737023;80;21353;-70
2021/10/18 01:02:38;;;;;;;22.58;13.90;;;;;;;4.69;69.70;100895.41;1739314;80;21058;-71
2021/10/18 01:05:09;;;;;;;20.08;12.40;;;;;;;4.66;69.94;100888.41;1737627;80;21243;-70
2021/10/18 01:07:37;;;;;;;20.40;11.68;;;;;;;4.62;69.99;100887.20;1736567;80;21106;-71
2021/10/18 01:10:05;;;;;;;18.30;10.55;;;;;;;4.61;70.00;100886.91;1749575;79;21024;-71
2021/10/18 01:12:33;;;;;;;17.40;10.23;;;;;;;4.62;70.08;100890.66;1737308;80;22000;-71
2021/10/18 01:15:05;;;;;;;15.03;8.25;;;;;;;4.59;69.99;100894.23;1736364;80;21067;-72
2021/10/18 01:17:37;;;;;;;14.23;8.15;;;;;;;4.59;69.87;100886.30;1736183;80;21167;-70
2021/10/18 01:20:08;;;;;;;12.10;7.90;;;;;;;4.56;69.68;100889.36;1737387;80;21092;-70
2021/10/18 01:22:40;;;;;;;17.73;8.98;;;;;;;4.56;69.65;100892.00;1734897;80;21055;-69
2021/10/18 01:25:08;;;;;;;14.38;9.18;;;;;;;4.53;69.41;100887.13;1736467;80;21976;-70
2021/10/18 01:27:36;;;;;;;13.30;9.30;;;;;;;4.51;69.43;100883.38;1736788;80;21005;-71
2021/10/18 01:30:04;;;;;;;15.30;10.08;;;;;;;4.45;69.71;100885.02;1736028;80;21106;-71
2021/10/18 01:32:31;;;;;;;15.60;9.75;;;;;;;4.36;69.96;100886.26;1734655;80;21084;-71
2021/10/18 01:34:59;;;;;;;16.20;9.78;;;;;;;4.24;70.20;100893.20;1736785;80;21804;-70
2021/10/18 01:37:26;;;;;;;15.60;10.55;;;;;;;4.10;70.43;100888.96;1734860;80;21165;-71
2021/10/18 01:39:53;;;;;;;14.87;9.65;;;;;;;3.98;70.67;100883.47;1748783;79;21730;-71
2021/10/18 01:42:22;;;;;;;16.67;9.78;;;;;;;3.87;70.90;100890.71;1733815;80;21091;-70
2021/10/18 01:44:49;;;;;;;15.45;9.85;;;;;;;3.78;71.14;100890.61;1727655;80;21588;-70
2021/10/18 01:47:15;;;;;;;16.75;10.58;;;;;;;3.68;71.42;100889.18;1726010;81;21079;-69
2021/10/18 01:49:42;;;;;;;18.02;10.70;;;;;;;3.62;71.69;100897.10;1727770;81;21146;-70
2021/10/18 01:52:12;;;;;;;15.88;10.08;;;;;;;3.56;71.92;100895.30;1748851;79;21019;-70
2021/10/18 01:54:45;;;;;;;17.90;10.75;;;;;;;3.51;72.16;100899.34;1735422;80;21467;-70
2021/10/18 01:57:11;;;;;;;14.18;9.53;;;;;;;3.46;72.42;100901.78;1690404;80;21134;-70
2021/10/18 01:59:42;;;;;;;16.32;9.90;;;;;;;3.39;72.79;100897.00;1738618;80;21055;-70
2021/10/18 02:02:09;;;;;;;15.93;10.20;;;;;;;3.34;73.20;100902.06;1738525;80;21869;-70
2021/10/18 02:04:51;;;;;;;15.38;9.70;;;;;;;3.31;73.54;100893.22;1737690;80;21015;-70
2021/10/18 02:07:29;;;;;;;16.42;10.25;;;;;;;3.30;73.79;100890.28;1736443;80;21063;-70
2021/10/18 02:10:05;;;;;;;15.35;9.88;;;;;;;3.25;74.01;100884.27;1736109;80;21530;-71
2021/10/18 02:12:40;;;;;;;16.40;10.23;;;;;;;3.22;74.21;100884.66;1735626;80;21083;-70
2021/10/18 02:15:22;;;;;;;16.48;10.05;;;;;;;3.18;74.39;100882.64;1731091;81;21097;-70
2021/10/18 02:17:57;;;;;;;15.32;9.38;;;;;;;3.11;74.63;100883.94;1738151;80;21087;-71
2021/10/18 02:20:40;;;;;;;13.72;9.38;;;;;;;3.05;75.05;100888.19;1735251;80;21609;-69
2021/10/18 02:23:14;;;;;;;15.20;9.60;;;;;;;3.03;75.43;100896.02;1735372;80;21043;-70
2021/10/18 02:25:58;;;;;;;15.68;10.15;;;;;;;3.00;76.07;100889.30;1737269;80;21039;-71
2021/10/18 02:28:30;;;;;;;11.70;6.97;;;;;;;2.99;76.50;100886.33;1718118;80;21066;-71
2021/10/18 02:31:13;;;;;;;13.68;9.28;;;;;;;3.00;76.87;100891.94;1733383;80;21095;-70
2021/10/18 02:33:43;;;;;;;16.10;10.10;;;;;;;2.96;77.15;100888.08;1736054;80;21051;-70
2021/10/18 02:36:27;;;;;;;16.85;9.90;;;;;;;2.93;77.41;100891.11;1735263;80;21086;-71
2021/10/18 02:39:01;;;;;;;13.95;9.50;;;;;;;2.93;77.60;100892.91;1711847;82;21051;-70
2021/10/18 02:41:42;;;;;;;13.98;9.33;;;;;;;2.89;77.80;100887.22;1734929;80;21889;-70
2021/10/18 02:44:12;;;;;;;17.07;10.15;;;;;;;2.85;78.01;100878.59;1735382;80;21055;-70
2021/10/18 02:46:50;;;;;;;16.57;10.18;;;;;;;2.81;78.24;100889.54;1710142;81;21103;-70
2021/10/18 02:49:23;;;;;;;15.55;10.80;;;;;;;2.79;78.58;100886.78;1731298;80;21740;-70
2021/10/18 02:52:04;;;;;;;14.18;10.03;;;;;;;2.81;78.89;100881.63;1736852;80;21126;-71
2021/10/18 02:54:39;;;;;;;13.55;9.43;;;;;;;2.86;79.11;100884.16;1737104;80;21312;-70
2021/10/18 02:57:18;;;;;;;14.18;9.40;;;;;;;2.90;79.35;100881.46;1735110;80;21582;-71
2021/10/18 02:59:51;;;;;;;17.82;10.18;;;;;;;2.94;79.55;100876.09;1740660;80;21326;-71
2021/10/18 03:02:31;;;;;;;14.43;9.35;;;;;;;2.99;79.70;100882.38;1740038;80;21038;-70
2021/10/18 03:05:19;;;;;;;14.25;9.58;;;;;;;3.04;79.77;100871.24;1736719;80;21078;-70
2021/10/18 03:07:53;;;;;;;14.25;9.63;;;;;;;3.09;79.84;100870.63;1737462;80;21165;-71
2021/10/18 03:10:49;;;;;;;15.45;9.08;;;;;;;3.16;79.90;100874.94;1708415;80;27508;-71
2021/10/18 03:13:38;;;;;;;14.30;9.28;;;;;;;3.19;79.97;100866.61;1737519;80;21062;-71
2021/10/18 03:16:19;;;;;;;13.88;8.98;;;;;;;3.21;79.97;100865.08;1734923;80;21600;-71
2021/10/18 03:18:58;;;;;;;14.47;8.93;;;;;;;3.25;79.99;100865.78;1742937;80;21371;-70
2021/10/18 03:21:44;;;;;;;16.05;9.40;;;;;;;3.27;80.08;100858.49;1756490;80;21943;-70
2021/10/18 03:24:38;;;;;;;18.75;8.88;;;;;;;3.33;80.15;100863.48;1748831;79;20997;-71
2021/10/18 03:27:31;;;;;;;14.03;9.03;;;;;;;3.35;80.24;100854.83;1735774;80;21039;-71
2021/10/18 03:30:25;;;;;;;15.72;10.32;;;;;;;3.38;80.35;100858.39;1737226;80;21020;-71
2021/10/18 03:33:12;;;;;;;13.03;9.23;;;;;;;3.41;80.46;100861.95;1736949;80;21043;-70
2021/10/18 03:35:52;;;;;;;16.73;10.32;;;;;;;3.43;80.49;100851.20;1708188;80;21135;-70
2021/10/18 03:38:32;;;;;;;16.00;10.55;;;;;;;3.42;80.38;100849.56;1699822;82;21043;-70
2021/10/18 03:41:11;;;;;;;16.80;11.10;;;;;;;3.44;80.40;100851.50;1729018;80;21067;-70
2021/10/18 03:43:50;;;;;;;18.60;10.90;;;;;;;3.46;80.46;100850.80;1748234;80;21114;-71
2021/10/18 03:46:31;;;;;;;15.93;9.65;;;;;;;3.51;80.47;100852.31;1734054;80;21574;-70
2021/10/18 03:49:07;;;;;;;15.72;10.35;;;;;;;3.60;80.51;100853.73;1685266;82;21234;-70
2021/10/18 03:51:44;;;;;;;14.50;9.18;;;;;;;3.64;80.46;100850.98;1737938;80;21062;-71
2021/10/18 03:54:22;;;;;;;15.70;10.48;;;;;;;3.68;80.45;100848.75;1738554;80;21597;-71
2021/10/18 03:57:02;;;;;;;20.80;10.75;;;;;;;3.70;80.54;100845.41;1737700;81;21129;-70
2021/10/18 03:59:42;;;;;;;17.70;12.05;;;;;;;3.71;80.61;100844.38;1719620;81;21617;-71
2021/10/18 04:02:22;;;;;;;21.23;12.73;;;;;;;3.73;80.69;100841.03;1733154;80;21202;-70
2021/10/18 04:05:02;;;;;;;22.05;12.95;;;;;;;3.73;80.69;100837.88;1712783;82;21545;-70
2021/10/18 04:07:49;;;;;;;21.57;12.68;;;;;;;3.77;80.76;100836.95;1749452;80;21067;-70
2021/10/18 04:10:19;;;;;;;21.10;12.65;;;;;;;3.78;80.81;100837.25;1735762;80;21004;-70
2021/10/18 04:13:08;;;;;;;19.73;11.80;;;;;;;3.84;80.87;100831.66;1752147;80;20992;-71
2021/10/18 04:15:35;;;;;;;15.65;10.30;;;;;;;3.90;80.86;100825.05;1733525;80;21164;-72
2021/10/18 04:18:18;;;;;;;17.55;10.50;;;;;;;3.94;80.83;100817.00;1736425;80;21063;-71
2021/10/18 04:20:52;;;;;;;17.07;9.88;;;;;;;3.98;80.75;100834.58;1738445;80;21075;-72
2021/10/18 04:23:37;;;;;;;15.20;10.03;;;;;;;3.99;80.68;100831.75;1751546;80;21629;-72
2021/10/18 04:26:11;;;;;;;15.63;9.55;;;;;;;3.98;80.66;100844.67;1735422;80;21058;-72
2021/10/18 04:28:57;;;;;;;15.70;9.60;;;;;;;3.99;80.65;100842.83;1736038;80;21662;-71
2021/10/18 04:31:32;;;;;;;19.82;10.30;;;;;;;3.96;80.60;100842.73;1727338;80;21004;-71
2021/10/18 04:34:12;;;;;;;18.32;10.68;;;;;;;3.92;80.53;100840.20;1742408;81;21095;-71
2021/10/18 04:36:54;;;;;;;21.33;12.95;;;;;;;3.87;80.47;100846.59;1742505;80;21098;-71
2021/10/18 04:39:34;;;;;;;23.70;12.68;;;;;;;3.84;80.47;100846.20;1722442;82;21008;-71
2021/10/18 04:42:14;;;;;;;24.15;12.78;;;;;;;3.82;80.51;100847.73;1741332;80;21181;-72
2021/10/18 04:44:53;;;;;;;24.70;13.58;;;;;;;3.80;80.51;100847.63;1708750;81;21466;-71
2021/10/18 04:47:32;;;;;;;26.17;15.03;;;;;;;3.82;80.55;100848.22;1723921;82;21039;-70
2021/10/18 04:50:12;;;;;;;25.92;14.40;;;;;;;3.84;80.67;100856.25;1751294;80;21089;-72
2021/10/18 04:52:46;;;;;;;28.38;15.05;;;;;;;3.88;80.76;100856.17;1744080;81;21112;-71
2021/10/18 04:55:26;;;;;;;25.27;13.78;;;;;;;3.92;80.87;100858.70;1734793;81;21169;-71
2021/10/18 04:58:07;;;;;;;16.75;10.15;;;;;;;3.99;80.88;100854.73;1693027;82;21023;-70
2021/10/18 05:00:53;;;;;;;17.80;10.70;;;;;;;4.10;80.66;100855.41;1719420;80;21052;-71
2021/10/18 05:03:26;;;;;;;15.05;9.05;;;;;;;4.30;80.27;100859.83;1760005;81;21023;-71
2021/10/18 05:06:11;;;;;;;18.45;10.65;;;;;;;4.46;79.89;100862.02;1717139;82;21119;-71
2021/10/18 05:08:38;;;;;;;13.80;8.48;;;;;;;4.61;79.58;100865.74;1750033;80;21127;-71
2021/10/18 05:11:06;;;;;;;14.25;7.60;;;;;;;4.75;79.26;100863.84;1748992;80;21491;-71
2021/10/18 05:13:32;;;;;;;13.45;8.18;;;;;;;4.86;78.74;100865.81;1731942;81;21590;-71
2021/10/18 05:16:01;;;;;;;10.38;6.60;;;;;;;5.00;77.99;100865.23;1726322;80;21062;-70
2021/10/18 05:18:29;;;;;;;10.25;6.22;;;;;;;5.15;77.45;100861.79;1720372;82;21046;-71
2021/10/18 05:21:06;;;;;;;9.90;6.65;;;;;;;5.28;76.91;100864.34;1723410;82;21150;-70
2021/10/18 05:23:34;;;;;;;10.43;6.58;;;;;;;5.39;75.97;100863.65;1719660;83;20992;-71
2021/10/18 05:26:02;;;;;;;14.98;6.92;;;;;;;5.53;75.36;100866.23;1742449;80;21031;-71
2021/10/18 05:28:29;;;;;;;11.15;6.15;;;;;;;5.64;74.34;100870.30;1749694;82;22096;-70
2021/10/18 05:30:56;;;;;;;11.43;6.42;;;;;;;5.76;73.29;100870.41;1738908;80;21055;-71
2021/10/18 05:33:25;;;;;;;12.73;6.95;;;;;;;5.88;72.75;100872.62;1748840;81;22093;-71
2021/10/18 05:35:52;;;;;;;12.43;7.05;;;;;;;6.00;72.56;100874.61;1726665;81;21557;-72
2021/10/18 05:38:20;;;;;;;15.58;8.08;;;;;;;6.12;72.19;100880.83;1743967;79;21094;-72
2021/10/18 05:40:51;;;;;;;13.95;7.47;;;;;;;6.20;71.46;100881.85;1752287;80;21514;-71
2021/10/18 05:43:18;;;;;;;14.60;7.47;;;;;;;6.31;71.02;100886.41;1724399;82;21641;-72
2021/10/18 05:45:45;;;;;;;14.73;8.33;;;;;;;6.40;70.26;100887.47;1755581;81;21098;-72
2021/10/18 05:48:15;;;;;;;16.32;8.53;;;;;;;6.45;69.43;100887.59;1760797;81;21051;-70
2021/10/18 05:50:45;;;;;;;12.78;7.55;;;;;;;6.52;68.55;100894.99;1754887;80;21050;-70
2021/10/18 05:53:13;;;;;;;17.95;8.05;;;;;;;6.58;68.34;100888.28;1722552;81;21016;-71
2021/10/18 05:55:40;;;;;;;15.18;7.90;;;;;;;6.65;68.01;100888.72;1725761;80;20980;-71
2021/10/18 05:58:11;;;;;;;14.95;8.10;;;;;;;6.70;67.79;100889.66;1717115;80;21105;-71
2021/10/18 06:00:41;;;;;;;14.10;7.47;;;;;;;6.74;67.65;100889.49;1739990;80;21020;-71
2021/10/18 06:03:08;;;;;;;12.13;6.75;;;;;;;6.80;67.09;100886.47;1742245;81;21016;-71
2021/10/18 06:05:47;;;;;;;14.03;6.95;;;;;;;6.87;66.91;100890.38;1733078;80;21064;-71
2021/10/18 06:08:15;;;;;;;11.45;6.62;;;;;;;6.93;66.81;100885.50;1739334;80;21008;-70
2021/10/18 06:10:43;;;;;;;;;;;;;;;6.97;66.58;100880.83;1744482;80;21111;-71
2021/10/18 06:13:12;;;;;;;18.77;9.48;;;;;;;7.03;66.49;100892.41;1730392;81;20441;-70
2021/10/18 06:15:39;;;;;;;14.73;9.43;;;;;;;7.05;66.09;100899.64;1731371;80;21071;-72
2021/10/18 06:18:12;;;;;;;15.38;7.53;;;;;;;7.11;66.08;100905.88;1730657;80;20992;-71
2021/10/18 06:20:43;;;;;;;18.12;9.70;;;;;;;7.15;65.74;100901.76;1726754;81;21086;-73
2021/10/18 06:23:10;;;;;;;14.78;7.70;;;;;;;7.19;65.35;100907.71;1724284;82;21480;-72
2021/10/18 06:25:38;;;;;;;16.73;8.25;;;;;;;7.21;65.06;100909.64;1732749;81;21012;-72
2021/10/18 06:28:05;;;;;;;14.20;8.20;;;;;;;7.24;64.94;100907.86;1730528;80;21614;-72
2021/10/18 06:30:33;;;;;;;18.15;9.78;;;;;;;7.27;64.82;100910.06;1731772;80;20969;-73
2021/10/18 06:33:04;;;;;;;14.43;7.83;;;;;;;7.31;64.61;100917.59;1736781;80;21043;-71
2021/10/18 06:35:36;;;;;;;11.53;6.83;;;;;;;7.33;64.70;100914.97;1734464;81;21543;-71
2021/10/18 06:38:11;;;;;;;13.13;6.92;;;;;;;7.37;64.49;100927.28;1732056;80;21032;-72
2021/10/18 06:40:39;;;;;;;12.63;7.17;;;;;;;7.37;64.19;100923.30;1723804;80;21022;-71
2021/10/18 06:43:07;;;;;;;15.50;8.55;;;;;;;7.36;64.17;100919.03;1726811;81;21048;-73
2021/10/18 06:45:35;;;;;;;13.85;8.88;;;;;;;7.35;64.25;100921.41;1727427;80;21550;-72
2021/10/18 06:48:03;;;;;;;16.97;10.28;;;;;;;7.35;64.28;100923.54;1730839;81;21973;-73
2021/10/18 06:50:36;;;;;;;14.98;9.13;;;;;;;7.36;64.36;100919.84;1725394;80;21063;-74
2021/10/18 06:53:04;;;;;;;17.40;10.18;;;;;;;7.40;64.45;100922.84;1729631;81;21033;-72
2021/10/18 06:55:32;;;;;;;14.10;8.43;;;;;;;7.42;64.49;100917.61;1726240;81;21025;-73
2021/10/18 06:58:00;;;;;;;12.78;7.47;;;;;;;7.45;64.26;100922.47;1727696;81;21001;-72
2021/10/18 07:00:26;;;;;;;13.65;8.43;;;;;;;7.47;64.23;100920.93;1723328;81;21129;-72
2021/10/18 07:02:53;;;;;;;12.95;7.28;;;;;;;7.49;64.31;100920.16;1735046;80;21631;-72
2021/10/18 07:05:19;;;;;;;13.43;7.55;;;;;;;7.52;64.52;100923.70;1724286;80;21163;-71
2021/10/18 07:07:46;;;;;;;13.22;8.30;;;;;;;7.53;64.23;100927.97;1728332;81;20978;-72
2021/10/18 17:36:16;;;;;;;26.73;18.95;;;;;;;9.81;58.77;100890.30;1811838;77;21865;-74
2021/10/18 17:38:43;;;;;;;29.20;18.95;;;;;;;9.82;58.76;100891.10;1813083;77;21080;-74
2021/10/18 17:41:10;;;;;;;29.15;20.25;;;;;;;9.79;58.91;100891.59;1785843;79;21051;-72
2021/10/18 17:43:38;;;;;;;26.82;19.20;;;;;;;9.75;59.02;100892.60;1772406;79;21562;-72
2021/10/18 17:46:08;;;;;;;28.57;20.05;;;;;;;9.76;59.02;100897.41;1776317;79;21019;-73
2021/10/18 17:48:36;;;;;;;30.20;20.52;;;;;;;9.68;59.23;100901.30;1780697;79;21915;-73
2021/10/18 17:51:06;;;;;;;29.10;19.02;;;;;;;9.67;59.40;100898.86;1778016;78;21043;-75
2021/10/18 17:53:39;;;;;;;29.23;20.43;;;;;;;9.61;59.54;100898.79;1781831;79;21085;-75
2021/10/18 17:56:07;;;;;;;30.77;22.13;;;;;;;9.59;59.68;100903.55;1778228;78;27692;-76
2021/10/18 17:58:36;;;;;;;28.77;19.55;;;;;;;9.59;59.77;100908.08;1784985;78;21600;-73
2021/10/18 18:01:06;;;;;;;27.55;20.17;;;;;;;9.57;59.83;100907.50;1791025;78;21152;-74
2021/10/18 18:03:33;;;;;;;25.70;18.95;;;;;;;9.56;59.99;100913.36;1791084;78;21020;-76
2021/10/18 18:06:04;;;;;;;27.52;19.82;;;;;;;9.51;60.33;100911.13;1782576;79;21593;-74
2021/10/18 18:08:32;;;;;;;27.17;20.30;;;;;;;9.48;60.41;100911.63;1783372;79;20995;-78
2021/10/18 18:11:00;;;;;;;32.30;21.17;;;;;;;9.48;60.47;100917.77;1786893;79;21041;-77
2021/10/18 18:13:26;;;;;;;30.90;20.92;;;;;;;9.42;60.63;100920.59;1786166;78;21091;-76
2021/10/18 18:15:53;;;;;;;29.60;19.93;;;;;;;9.40;60.71;100921.61;1658053;78;9999630;-76
2021/10/18 18:18:19;;;;;;;27.73;19.35;;;;;;;9.36;60.77;100918.34;1781160;78;22190;-76
2021/10/18 18:20:46;;;;;;;29.92;20.27;;;;;;;9.32;60.86;100918.55;1778115;78;21142;-76
2021/10/18 18:23:13;;;;;;;33.63;20.72;;;;;;;9.28;60.90;100924.89;1780610;78;21088;-75
2021/10/18 18:25:40;;;;;;;30.70;20.72;;;;;;;9.26;60.87;100925.64;1782197;79;21223;-75
2021/10/18 18:28:06;;;;;;;32.75;21.25;;;;;;;9.23;60.92;100923.98;1755510;80;21251;-77
2021/10/18 18:30:33;;;;;;;36.08;22.80;;;;;;;9.21;60.96;100926.05;1790437;78;21008;-77
2021/10/18 18:33:01;;;;;;;35.03;22.22;;;;;;;9.21;60.98;100926.86;1780079;79;21042;-76
2021/10/18 18:35:28;;;;;;;37.28;22.52;;;;;;;9.21;60.99;100918.87;1786178;79;21539;-77
2021/10/18 18:37:55;;;;;;;34.18;22.37;;;;;;;9.20;61.03;100930.58;1780282;79;21051;-75
2021/10/18 18:40:25;;;;;;;31.70;20.62;;;;;;;9.20;61.10;100928.45;1778392;79;21067;-78
2021/10/18 18:42:52;;;;;;;30.02;20.25;;;;;;;9.02;61.51;100928.13;1780407;79;21054;-78
2021/10/18 18:45:19;;;;;;;31.30;20.72;;;;;;;8.96;61.67;100930.40;1785539;78;21130;-79
2021/10/18 18:47:47;;;;;;;36.88;22.30;;;;;;;9.02;61.55;100932.92;1786052;78;22389;-75
2021/10/18 18:50:16;;;;;;;38.58;23.15;;;;;;;8.95;61.70;100928.27;1783300;79;21043;-77
2021/10/18 18:52:48;;;;;;;33.58;20.80;;;;;;;8.76;62.17;100928.14;1781801;78;22077;-79
2021/10/18 18:55:31;;;;;;;37.15;23.07;;;;;;;8.85;61.95;100928.87;1788856;79;21146;-77
2021/10/18 18:57:58;;;;;;;31.73;20.43;;;;;;;8.88;61.82;100936.89;1765553;79;21047;-76
2021/10/18 19:00:24;;;;;;;29.15;19.67;;;;;;;8.87;61.80;100935.28;1785425;79;22165;-78
2021/10/18 19:02:55;;;;;;;34.00;20.23;;;;;;;8.84;61.84;100937.08;1791438;79;21052;-76
2021/10/18 19:05:22;;;;;;;26.87;18.23;;;;;;;8.88;61.70;100936.39;1787798;78;21123;-74
2021/10/18 19:07:50;;;;;;;27.85;18.15;;;;;;;8.90;61.70;100937.47;1786813;78;21466;-77
2021/10/18 19:10:18;;;;;;;24.60;18.62;;;;;;;8.92;61.73;100946.05;1799827;78;21075;-76
2021/10/18 19:12:45;;;;;;;28.57;19.62;;;;;;;8.96;61.80;100944.52;1787942;78;21118;-79
2021/10/18 19:15:14;;;;;;;26.25;18.90;;;;;;;8.90;61.97;100939.61;1801036;78;21042;-81
2021/10/18 19:17:42;;;;;;;26.68;18.55;;;;;;;8.93;62.16;100945.00;1762351;79;21526;-79
2021/10/18 19:20:12;;;;;;;26.42;18.55;;;;;;;8.96;62.16;100949.86;1783165;79;21129;-77
2021/10/18 19:22:41;;;;;;;28.85;18.90;;;;;;;8.99;62.24;100952.05;1791474;78;20957;-77
2021/10/18 19:25:09;;;;;;;26.00;18.05;;;;;;;9.03;62.33;100950.52;1785084;79;21133;-73
2021/10/18 19:27:36;;;;;;;28.35;18.52;;;;;;;9.02;62.47;100947.58;1770958;79;21645;-78
2021/10/18 19:30:06;;;;;;;23.45;16.55;;;;;;;9.06;62.56;100945.25;1781261;78;21031;-78
2021/10/18 19:32:34;;;;;;;25.95;18.30;;;;;;;9.08;62.54;100947.13;1787532;78;21039;-76
2021/10/18 19:35:01;;;;;;;26.93;18.60;;;;;;;9.08;62.50;100944.47;1789892;79;21106;-74
2021/10/18 19:37:29;;;;;;;35.08;20.08;;;;;;;9.07;62.49;100954.85;1785372;79;21116;-75
2021/10/18 19:39:55;;;;;;;29.12;19.20;;;;;;;9.08;62.43;100953.80;1787670;79;21567;-77
2021/10/18 19:42:23;;;;;;;24.50;18.62;;;;;;;9.09;62.38;100954.91;1765772;78;21196;-78
2021/10/18 19:44:50;;;;;;;27.33;18.07;;;;;;;9.09;62.31;100950.91;1661802;78;9999590;-79
2021/10/18 19:47:18;;;;;;;26.42;18.75;;;;;;;9.12;62.24;100956.30;1786012;79;21585;-76
2021/10/18 19:49:45;;;;;;;30.37;20.80;;;;;;;9.11;62.17;100955.48;1782802;79;21095;-77
2021/10/18 19:52:18;;;;;;;28.17;19.30;;;;;;;9.11;62.19;100952.83;1778668;79;21159;-76
2021/10/18 19:54:41;;;;;;;29.25;19.75;;;;;;;9.12;62.19;100955.77;1778797;79;21891;-77
2021/10/18 19:57:08;;;;;;;25.97;18.60;;;;;;;9.15;62.19;100956.63;1787722;79;21075;-75
2021/10/18 19:59:35;;;;;;;27.77;19.02;;;;;;;9.21;62.19;100956.18;1785730;78;21186;-75
2021/10/18 20:02:02;;;;;;;27.17;18.67;;;;;;;9.25;62.22;100947.22;1785838;78;21051;-74
2021/10/18 20:04:29;;;;;;;25.75;17.85;;;;;;;9.28;62.29;100944.04;1781434;78;21106;-74
2021/10/18 20:06:56;;;;;;;25.92;19.15;;;;;;;9.33;62.33;100945.48;1784724;78;21058;-75
2021/10/18 20:09:22;;;;;;;26.00;17.07;;;;;;;9.38;62.36;100953.05;1788478;79;21028;-75
2021/10/18 20:11:51;;;;;;;24.02;15.95;;;;;;;9.42;62.35;100953.39;1782656;78;21366;-75
2021/10/18 20:14:17;;;;;;;23.52;16.30;;;;;;;9.47;62.26;100956.66;1786428;79;21425;-74
2021/10/18 20:16:44;;;;;;;22.73;15.80;;;;;;;9.50;62.20;100951.65;1781446;78;20985;-75
2021/10/18 20:19:11;;;;;;;25.77;17.65;;;;;;;9.54;61.99;100955.97;1789359;79;21011;-73
2021/10/18 20:21:38;;;;;;;23.45;16.30;;;;;;;9.61;61.93;100956.66;1775560;78;21106;-75
2021/10/18 20:24:05;;;;;;;22.15;15.35;;;;;;;9.65;61.79;100953.79;1781305;79;21140;-76
2021/10/18 20:26:32;;;;;;;26.25;17.98;;;;;;;9.68;61.71;100953.31;1785311;78;21043;-77
2021/10/18 20:28:59;;;;;;;25.50;16.80;;;;;;;9.69;61.66;100962.91;1793798;79;21471;-76
2021/10/18 20:31:26;;;;;;;24.15;18.32;;;;;;;9.70;61.63;100953.05;1788592;79;21052;-76
2021/10/18 20:33:54;;;;;;;23.60;16.48;;;;;;;9.72;61.58;100962.97;1789140;78;21491;-76
2021/10/18 20:36:21;;;;;;;22.82;14.85;;;;;;;9.75;61.61;100969.16;1788756;78;21120;-77
2021/10/18 20:38:48;;;;;;;26.97;16.97;;;;;;;9.75;61.57;100961.95;1663400;78;9999787;-76
2021/10/18 20:41:15;;;;;;;25.48;17.70;;;;;;;9.75;61.53;100969.16;1783702;79;21430;-77
2021/10/18 20:43:42;;;;;;;25.92;18.05;;;;;;;9.75;61.41;100976.63;1784880;79;21544;-76
2021/10/18 20:46:08;;;;;;;25.05;17.40;;;;;;;9.79;61.37;100980.42;1790139;78;21096;-77
2021/10/18 20:48:34;;;;;;;26.55;18.07;;;;;;;9.80;61.31;100979.90;1783821;78;21079;-75
2021/10/18 20:51:01;;;;;;;24.70;17.52;;;;;;;9.82;61.22;100983.14;1788920;78;21586;-79
2021/10/18 20:53:28;;;;;;;23.67;16.20;;;;;;;9.81;61.15;100981.00;1788379;78;21078;-75
2021/10/18 20:55:54;;;;;;;19.85;15.48;;;;;;;9.82;61.11;100987.14;1788434;78;21545;-78
2021/10/18 20:58:24;;;;;;;23.77;16.37;;;;;;;9.82;61.17;100981.81;1796959;79;21117;-76
2021/10/18 21:00:49;;;;;;;26.05;17.37;;;;;;;9.83;61.12;100984.75;1790560;78;21537;-78
2021/10/18 21:03:16;;;;;;;25.27;17.50;;;;;;;9.80;61.06;100977.23;1791724;78;21067;-76
2021/10/18 21:05:43;;;;;;;27.13;18.07;;;;;;;9.76;61.03;100984.10;1777525;78;21070;-75
2021/10/18 21:08:10;;;;;;;26.87;17.55;;;;;;;9.73;61.12;100981.38;1787878;78;20989;-77
2021/10/18 21:10:37;;;;;;;26.50;18.10;;;;;;;9.73;61.20;100981.91;1783834;79;21924;-76
2021/10/18 21:13:04;;;;;;;24.12;17.62;;;;;;;9.70;61.26;100984.53;1793202;78;21066;-77
2021/10/18 21:15:32;;;;;;;24.60;17.17;;;;;;;9.68;61.29;100979.98;1781877;79;21042;-77
2021/10/18 21:18:00;;;;;;;27.93;18.52;;;;;;;9.68;61.43;100984.51;1784118;78;21131;-76
2021/10/18 21:20:28;;;;;;;23.15;16.10;;;;;;;9.67;61.58;100994.88;1789823;79;21048;-75
2021/10/18 21:22:56;;;;;;;23.83;17.27;;;;;;;9.63;61.64;100984.69;1768315;79;22349;-76
2021/10/18 21:25:23;;;;;;;24.25;18.15;;;;;;;9.65;61.65;100990.32;1789393;78;20996;-75
2021/10/18 21:27:50;;;;;;;23.55;16.70;;;;;;;9.66;61.70;100982.59;1762996;79;21083;-77
2021/10/18 21:30:17;;;;;;;29.72;18.17;;;;;;;9.69;61.70;100990.13;1779533;80;21048;-76
2021/10/18 21:32:44;;;;;;;25.43;17.67;;;;;;;9.70;61.67;100993.06;1783017;78;21566;-75
2021/10/18 21:35:12;;;;;;;22.62;17.32;;;;;;;9.68;61.67;100987.98;1782938;79;21550;-78
2021/10/18 21:37:39;;;;;;;24.55;15.72;;;;;;;9.69;61.83;100993.59;1777959;79;21089;-75
2021/10/18 21:40:06;;;;;;;21.87;15.65;;;;;;;9.74;61.80;100988.86;1776269;79;21038;-76
2021/10/18 21:42:33;;;;;;;24.82;17.17;;;;;;;9.74;61.73;100995.03;1794280;78;21137;-76
2021/10/18 21:44:59;;;;;;;24.10;17.60;;;;;;;9.73;61.78;100991.25;1796230;79;20964;-75
2021/10/18 21:47:26;;;;;;;26.02;16.75;;;;;;;9.72;61.86;100996.31;1778688;79;21744;-76
2021/10/18 21:49:53;;;;;;;24.92;16.25;;;;;;;9.69;62.00;100995.45;1781159;78;21028;-75
2021/10/18 21:52:19;;;;;;;22.37;15.65;;;;;;;9.63;62.09;100999.35;1797921;78;21055;-75
2021/10/18 21:54:47;;;;;;;23.47;16.10;;;;;;;9.59;62.20;100998.22;1792551;78;21099;-76
2021/10/18 21:57:15;;;;;;;23.02;16.05;;;;;;;9.55;62.33;101005.09;1782168;78;21031;-76
2021/10/18 21:59:41;;;;;;;20.27;14.85;;;;;;;9.51;62.66;101011.12;1786698;78;21103;-75
2021/10/18 22:02:08;;;;;;;20.08;15.35;;;;;;;9.46;62.87;101011.84;1766155;78;21090;-75